Meteorología y climatología de Navarra
Datos de la estación - Meteo Navarra

Estación de Yesa GN

Altitud 487 m.


Datos desde el 03/12/2019 hasta el 04/12/2019 en horario solar
Los datos son PROVISIONALES

Anterior Página 1 de 1 Siguiente Descargar: Formato para Excel 2000 o superior   Formato csv   Formato para OpenOffice Calc
Fecha Temperatura Humedad relativa Radiación global Insolación Precipitación Vel. viento 10 m Vel. viento 10 m Dir. viento 10 m
ºC % W/m² s l/m² m/s km/h º
03/12/2019 0:00 1.0 89 0.0 0 0.0 0.9 3.3 80
03/12/2019 0:10 0.9 90 0.0 0 0.0 0.6 2.1 83
03/12/2019 0:20 1.0 91 0.0 0 0.0 0.6 2.3 30
03/12/2019 0:30 0.9 89 0.0 0 0.0 0.9 3.1 75
03/12/2019 0:40 0.6 91 0.0 0 0.0 0.8 2.8 85
03/12/2019 0:50 0.6 91 0.0 0 0.0 0.9 3.2 106
03/12/2019 1:00 0.3 92 0.0 0 0.0 1.5 5.4 90
03/12/2019 1:10 0.8 93 0.0 0 0.0 1.2 4.5 101
03/12/2019 1:20 1.3 93 0.0 0 0.0 1.6 5.9 99
03/12/2019 1:30 1.8 92 0.0 0 0.0 2.1 7.5 95
03/12/2019 1:40 1.8 92 0.0 0 0.0 2.6 9.3 93
03/12/2019 1:50 1.9 92 0.0 0 0.0 2.4 8.5 103
03/12/2019 2:00 1.7 91 0.0 0 0.0 2.1 7.4 109
03/12/2019 2:10 1.7 91 0.0 0 0.0 1.0 3.5 103
03/12/2019 2:20 1.3 92 0.0 0 0.0 1.4 5.2 95
03/12/2019 2:30 1.3 93 0.0 0 0.0 1.4 4.9 102
03/12/2019 2:40 1.3 92 0.0 0 0.0 1.7 6.2 104
03/12/2019 2:50 1.4 92 0.0 0 0.0 1.8 6.6 107
03/12/2019 3:00 1.4 92 0.0 0 0.0 1.6 5.8 104
03/12/2019 3:10 1.3 92 0.0 0 0.0 1.4 5.1 103
03/12/2019 3:20 1.2 92 0.0 0 0.0 2.0 7.1 99
03/12/2019 3:30 1.1 92 0.0 0 0.0 1.9 6.9 103
03/12/2019 3:40 1.1 92 0.0 0 0.0 2.0 7.1 106
03/12/2019 3:50 1.0 93 0.0 0 0.0 1.3 4.8 101
03/12/2019 4:00 1.0 93 0.0 0 0.0 1.6 5.8 88
03/12/2019 4:10 0.9 93 0.0 0 0.0 1.9 6.9 90
03/12/2019 4:20 0.8 93 0.0 0 0.0 2.3 8.2 98
03/12/2019 4:30 1.0 94 0.0 0 0.0 2.4 8.5 91
03/12/2019 4:40 1.0 94 0.0 0 0.0 2.2 7.9 88
03/12/2019 4:50 0.8 94 0.0 0 0.0 2.5 8.8 102
03/12/2019 5:00 0.9 94 0.0 0 0.0 2.5 8.9 106
03/12/2019 5:10 0.9 94 0.0 0 0.0 2.3 8.1 106
03/12/2019 5:20 0.8 94 0.0 0 0.0 2.4 8.5 83
03/12/2019 5:30 0.7 94 0.0 0 0.0 2.0 7.3 84
03/12/2019 5:40 0.7 95 0.0 0 0.0 2.3 8.4 104
03/12/2019 5:50 0.8 95 0.0 0 0.0 2.7 9.6 95
03/12/2019 6:00 0.6 95 0.0 0 0.0 2.7 9.6 81
03/12/2019 6:10 0.7 95 0.0 0 0.0 2.7 9.7 82
03/12/2019 6:20 0.7 95 0.0 0 0.0 2.8 9.9 96
03/12/2019 6:30 0.7 94 0.0 0 0.0 2.5 8.8 91
03/12/2019 6:40 0.6 94 0.0 0 0.0 3.0 10.9 97
03/12/2019 6:50 0.5 94 0.0 0 0.0 2.8 10.0 97
03/12/2019 7:00 0.5 94 0.0 0 0.0 2.6 9.2 101
03/12/2019 7:10 0.4 94 0.0 0 0.0 2.8 10.0 106
03/12/2019 7:20 0.1 94 0.0 0 0.0 3.2 11.7 103
03/12/2019 7:30 0.3 94 0.0 0 0.0 3.3 12.0 103
03/12/2019 7:40 0.2 94 0.0 0 0.0 2.7 9.8 99
03/12/2019 7:50 0.2 94 1.8 0 0.0 2.6 9.5 94
03/12/2019 8:00 0.1 94 20.0 0 0.0 3.1 11.1 97
03/12/2019 8:10 0.2 94 27.9 0 0.0 3.2 11.6 100
03/12/2019 8:20 0.2 93 31.4 0 0.0 3.4 12.2 99
03/12/2019 8:30 0.1 93 33.1 0 0.0 3.6 13.1 99
03/12/2019 8:40 0.1 93 39.8 0 0.0 3.3 12.0 99
03/12/2019 8:50 0.2 94 44.6 0 0.0 3.5 12.7 99
03/12/2019 9:00 0.3 93 51.2 0 0.0 3.8 13.6 102
03/12/2019 9:10 0.4 93 54.2 0 0.0 3.3 11.7 103
03/12/2019 9:20 0.4 93 97.9 96 0.0 4.0 14.2 101
03/12/2019 9:30 0.5 92 153.7 262 0.0 3.6 13.0 106
03/12/2019 9:40 1.3 91 296.0 600 0.0 2.9 10.4 112
03/12/2019 9:50 2.0 89 321.7 600 0.0 2.5 8.9 110
03/12/2019 10:00 2.3 87 335.7 600 0.0 2.1 7.6 118
03/12/2019 10:10 2.8 84 337.7 600 0.0 2.2 7.9 121
03/12/2019 10:20 3.2 82 334.7 600 0.0 2.4 8.5 120
03/12/2019 10:30 3.4 80 348.6 600 0.0 2.6 9.4 127
03/12/2019 10:40 3.4 80 388.5 600 0.0 2.3 8.2 117
03/12/2019 10:50 4.0 78 424.8 600 0.0 2.5 9.1 122
03/12/2019 11:00 4.1 75 449.1 600 0.0 2.4 8.5 129
03/12/2019 11:10 4.4 75 453.2 600 0.0 2.1 7.5 133
03/12/2019 11:20 4.7 75 446.7 600 0.0 2.1 7.5 134
03/12/2019 11:30 5.0 74 438.9 600 0.0 2.2 7.9 128
03/12/2019 11:40 5.3 72 441.4 600 0.0 1.9 6.8 129
03/12/2019 11:50 5.8 70 443.1 600 0.0 2.2 8.0 123
03/12/2019 12:00 5.9 67 444.4 600 0.0 2.9 10.3 123
03/12/2019 12:10 6.2 67 442.4 600 0.0 1.7 6.2 140
03/12/2019 12:20 6.5 66 438.6 600 0.0 1.9 6.9 169
03/12/2019 12:30 7.0 65 433.0 600 0.0 1.3 4.8 148
03/12/2019 12:40 7.3 65 426.7 600 0.0 1.6 5.7 158
03/12/2019 12:50 7.4 65 418.9 600 0.0 1.7 6.0 165
03/12/2019 13:00 7.7 64 409.1 600 0.0 1.2 4.2 156
03/12/2019 13:10 8.0 63 398.4 600 0.0 1.1 3.9 161
03/12/2019 13:20 8.2 62 385.9 600 0.0 1.3 4.5 168
03/12/2019 13:30 8.6 61 371.4 600 0.0 1.2 4.4 189
03/12/2019 13:40 8.6 60 355.6 600 0.0 1.4 5.1 201
03/12/2019 13:50 8.7 60 334.8 600 0.0 1.6 5.8 206
03/12/2019 14:00 8.6 61 321.2 600 0.0 1.7 6.0 196
03/12/2019 14:10 8.6 62 302.1 600 0.0 1.1 3.9 242
03/12/2019 14:20 8.3 63 280.8 600 0.0 1.0 3.7 203
03/12/2019 14:30 8.5 64 258.4 600 0.0 0.8 2.9 228
03/12/2019 14:40 8.0 64 235.8 600 0.0 1.0 3.5 243
03/12/2019 14:50 8.1 65 214.2 600 0.0 1.4 5.1 267
03/12/2019 15:00 8.0 66 190.8 600 0.0 1.0 3.7 274
03/12/2019 15:10 8.1 66 167.2 600 0.0 0.5 1.9 253
03/12/2019 15:20 8.0 66 143.6 600 0.0 0.9 3.2 211
03/12/2019 15:30 7.8 67 80.8 252 0.0 0.8 2.8 232
03/12/2019 15:40 7.7 68 31.9 0 0.0 1.0 3.5 263
03/12/2019 15:50 7.6 68 27.4 0 0.0 0.7 2.4 269
03/12/2019 16:00 7.3 70 22.1 0 0.0 0.9 3.1 281
03/12/2019 16:10 6.7 71 13.2 0 0.0 0.6 2.0 290
03/12/2019 16:20 5.8 74 0.0 0 0.0 0.6 2.2 272
03/12/2019 16:30 5.1 78 0.0 0 0.0 1.0 3.7 281
03/12/2019 16:40 5.0 79 0.0 0 0.0 0.7 2.6 262
03/12/2019 16:50 4.2 81 0.0 0 0.0 0.4 1.5 334
03/12/2019 17:00 3.6 85 0.0 0 0.0 0.5 1.9 298
03/12/2019 17:10 3.0 86 0.0 0 0.0 0.5 1.6 339
03/12/2019 17:20 2.5 87 0.0 0 0.0 0.5 1.8 344
03/12/2019 17:30 2.3 89 0.0 0 0.0 0.5 1.6 343
03/12/2019 17:40 2.2 89 0.0 0 0.0 1.0 3.5 329
03/12/2019 17:50 2.2 89 0.0 0 0.0 0.7 2.6 291
03/12/2019 18:00 2.1 90 0.0 0 0.0 0.5 1.9 278
03/12/2019 18:10 2.0 90 0.0 0 0.0 0.9 3.3 346
03/12/2019 18:20 1.8 91 0.0 0 0.0 1.2 4.3 325
03/12/2019 18:30 1.7 92 0.0 0 0.0 1.0 3.7 325
03/12/2019 18:40 1.8 91 0.0 0 0.0 0.6 2.2 264
03/12/2019 18:50 1.2 91 0.0 0 0.0 0.3 1.2 334
03/12/2019 19:00 0.8 93 0.0 0 0.0 1.2 4.4 327
03/12/2019 19:10 1.0 93 0.0 0 0.0 0.7 2.3 266
03/12/2019 19:20 0.7 93 0.0 0 0.0 0.0 0.0 199
03/12/2019 19:30 0.3 93 0.0 0 0.0 0.2 0.8 79
03/12/2019 19:40 0.3 95 0.0 0 0.0 0.3 1.2 358
03/12/2019 19:50 0.5 95 0.0 0 0.0 0.4 1.3 45
03/12/2019 20:00 0.2 95 0.0 0 0.0 0.4 1.6 70
03/12/2019 20:10 0.0 95 0.0 0 0.0 0.1 0.5 92
03/12/2019 20:20 -0.1 96 0.0 0 0.0 0.1 0.3 119
03/12/2019 20:30 0.2 97 0.0 0 0.0 0.5 1.9 78
03/12/2019 20:40 1.0 98 0.0 0 0.0 1.4 5.1 93
03/12/2019 20:50 1.9 98 0.0 0 0.0 2.6 9.3 104
03/12/2019 21:00 2.4 95 0.0 0 0.0 1.5 5.4 123
03/12/2019 21:10 2.7 94 0.0 0 0.0 2.7 9.6 102
03/12/2019 21:20 2.7 93 0.0 0 0.0 3.9 14.2 100
03/12/2019 21:30 2.8 93 0.0 0 0.0 4.1 14.6 102
03/12/2019 21:40 2.8 92 0.0 0 0.0 4.7 16.8 103
03/12/2019 21:50 2.8 91 0.0 0 0.0 5.2 18.8 102
03/12/2019 22:00 2.7 91 0.0 0 0.0 5.7 20.4 102
03/12/2019 22:10 2.7 91 0.0 0 0.0 5.7 20.6 99
03/12/2019 22:20 2.7 91 0.0 0 0.0 5.5 19.9 100
03/12/2019 22:30 2.6 91 0.0 0 0.0 5.4 19.4 97
03/12/2019 22:40 2.6 92 0.0 0 0.0 5.5 19.7 97
03/12/2019 22:50 2.3 91 0.0 0 0.0 5.0 18.0 98
03/12/2019 23:00 2.3 90 0.0 0 0.0 5.2 18.8 101
03/12/2019 23:10 2.3 90 0.0 0 0.0 5.2 18.9 101
03/12/2019 23:20 2.4 90 0.0 0 0.0 4.5 16.3 104
03/12/2019 23:30 2.4 90 0.0 0 0.0 5.4 19.4 104
03/12/2019 23:40 2.3 90 0.0 0 0.0 5.4 19.3 104
03/12/2019 23:50 2.3 90 0.0 0 0.0 5.0 18.0 102
Anterior Página 1 de 1 Siguiente

NOTA: Tipo de datos según el color:
   - Valores diarios o 10 minutos correctos
   - Valores diarios calculados a partir de un número de datos 10 minutos menor que 144 y mayor que 120, o de un número de datos semihorarios menor que 48 y mayor que 40 (caso de las estaciones de Riegos de Navarra y del MARM)
   - Valores diez minutos estimados


Contacto        Enlaces        Aviso legal